sensor_id;sensor_type;location;lat;lon;timestamp;P1;durP1;ratioP1;P2;durP2;ratioP2
66256;SDS011;53049;43.446;3.698;2023-08-12T00:01:38;9.45;;;4.30;;
66256;SDS011;53049;43.446;3.698;2023-08-12T00:04:04;7.68;;;4.28;;
66256;SDS011;53049;43.446;3.698;2023-08-12T00:06:30;7.53;;;4.28;;
66256;SDS011;53049;43.446;3.698;2023-08-12T00:08:56;9.57;;;4.30;;
66256;SDS011;53049;43.446;3.698;2023-08-12T00:11:21;6.57;;;4.07;;
66256;SDS011;53049;43.446;3.698;2023-08-12T00:13:47;8.23;;;4.80;;
66256;SDS011;53049;43.446;3.698;2023-08-12T00:16:12;8.40;;;5.03;;
66256;SDS011;53049;43.446;3.698;2023-08-12T00:18:38;8.43;;;5.25;;
66256;SDS011;53049;43.446;3.698;2023-08-12T00:21:07;7.15;;;4.50;;
66256;SDS011;53049;43.446;3.698;2023-08-12T00:23:39;9.02;;;4.38;;
66256;SDS011;53049;43.446;3.698;2023-08-12T00:26:05;10.07;;;4.93;;
66256;SDS011;53049;43.446;3.698;2023-08-12T00:28:32;8.10;;;4.68;;
66256;SDS011;53049;43.446;3.698;2023-08-12T00:30:58;8.23;;;4.35;;
66256;SDS011;53049;43.446;3.698;2023-08-12T00:33:23;6.28;;;4.30;;
66256;SDS011;53049;43.446;3.698;2023-08-12T00:35:49;7.78;;;4.50;;
66256;SDS011;53049;43.446;3.698;2023-08-12T00:38:15;9.95;;;4.28;;
66256;SDS011;53049;43.446;3.698;2023-08-12T00:40:40;8.23;;;4.35;;
66256;SDS011;53049;43.446;3.698;2023-08-12T00:43:06;8.95;;;4.28;;
66256;SDS011;53049;43.446;3.698;2023-08-12T00:45:34;7.43;;;4.68;;
66256;SDS011;53049;43.446;3.698;2023-08-12T00:48:00;7.80;;;4.35;;
66256;SDS011;53049;43.446;3.698;2023-08-12T00:50:27;7.82;;;4.80;;
66256;SDS011;53049;43.446;3.698;2023-08-12T00:52:53;7.30;;;4.45;;
66256;SDS011;53049;43.446;3.698;2023-08-12T00:55:19;6.35;;;4.32;;
66256;SDS011;53049;43.446;3.698;2023-08-12T00:57:45;9.98;;;4.80;;
66256;SDS011;53049;43.446;3.698;2023-08-12T01:00:11;6.88;;;4.40;;
66256;SDS011;53049;43.446;3.698;2023-08-12T01:02:38;7.35;;;4.50;;
66256;SDS011;53049;43.446;3.698;2023-08-12T01:05:04;9.77;;;4.35;;
66256;SDS011;53049;43.446;3.698;2023-08-12T01:07:30;7.05;;;4.35;;
66256;SDS011;53049;43.446;3.698;2023-08-12T01:09:56;7.88;;;4.50;;
66256;SDS011;53049;43.446;3.698;2023-08-12T01:12:24;7.43;;;4.22;;
66256;SDS011;53049;43.446;3.698;2023-08-12T01:14:59;7.50;;;4.43;;
66256;SDS011;53049;43.446;3.698;2023-08-12T01:17:32;7.03;;;4.70;;
66256;SDS011;53049;43.446;3.698;2023-08-12T01:20:00;6.65;;;4.60;;
66256;SDS011;53049;43.446;3.698;2023-08-12T01:22:33;8.15;;;4.68;;
66256;SDS011;53049;43.446;3.698;2023-08-12T01:25:04;9.07;;;4.53;;
66256;SDS011;53049;43.446;3.698;2023-08-12T01:27:30;7.13;;;4.70;;
66256;SDS011;53049;43.446;3.698;2023-08-12T01:29:56;8.07;;;4.82;;
66256;SDS011;53049;43.446;3.698;2023-08-12T01:32:29;7.75;;;4.75;;
66256;SDS011;53049;43.446;3.698;2023-08-12T01:37:45;7.60;;;4.80;;
66256;SDS011;53049;43.446;3.698;2023-08-12T01:40:15;7.82;;;3.95;;
66256;SDS011;53049;43.446;3.698;2023-08-12T01:42:41;9.20;;;4.75;;
66256;SDS011;53049;43.446;3.698;2023-08-12T01:45:08;7.85;;;4.93;;
66256;SDS011;53049;43.446;3.698;2023-08-12T01:47:33;8.00;;;4.20;;
66256;SDS011;53049;43.446;3.698;2023-08-12T01:49:59;8.30;;;3.85;;
66256;SDS011;53049;43.446;3.698;2023-08-12T01:52:25;7.50;;;3.78;;
66256;SDS011;53049;43.446;3.698;2023-08-12T01:54:51;9.23;;;4.55;;
66256;SDS011;53049;43.446;3.698;2023-08-12T01:57:17;6.32;;;4.10;;
66256;SDS011;53049;43.446;3.698;2023-08-12T01:59:42;7.70;;;4.28;;
66256;SDS011;53049;43.446;3.698;2023-08-12T02:02:09;6.82;;;4.07;;
66256;SDS011;53049;43.446;3.698;2023-08-12T02:04:34;5.63;;;3.92;;
66256;SDS011;53049;43.446;3.698;2023-08-12T02:07:02;8.75;;;4.22;;
66256;SDS011;53049;43.446;3.698;2023-08-12T02:09:28;7.22;;;4.70;;
66256;SDS011;53049;43.446;3.698;2023-08-12T02:11:54;8.90;;;4.32;;
66256;SDS011;53049;43.446;3.698;2023-08-12T02:14:19;7.30;;;4.57;;
66256;SDS011;53049;43.446;3.698;2023-08-12T02:16:45;11.65;;;4.90;;
66256;SDS011;53049;43.446;3.698;2023-08-12T02:19:11;7.85;;;5.13;;
66256;SDS011;53049;43.446;3.698;2023-08-12T02:21:36;9.15;;;4.82;;
66256;SDS011;53049;43.446;3.698;2023-08-12T02:24:02;7.55;;;4.65;;
66256;SDS011;53049;43.446;3.698;2023-08-12T02:26:28;9.65;;;5.10;;
66256;SDS011;53049;43.446;3.698;2023-08-12T02:28:53;12.90;;;5.45;;
66256;SDS011;53049;43.446;3.698;2023-08-12T02:31:19;12.10;;;6.25;;
66256;SDS011;53049;43.446;3.698;2023-08-12T02:33:44;10.10;;;6.30;;
66256;SDS011;53049;43.446;3.698;2023-08-12T02:36:10;11.05;;;7.50;;
66256;SDS011;53049;43.446;3.698;2023-08-12T02:38:36;14.52;;;7.80;;
66256;SDS011;53049;43.446;3.698;2023-08-12T02:41:01;12.63;;;8.45;;
66256;SDS011;53049;43.446;3.698;2023-08-12T02:43:27;11.45;;;8.40;;
66256;SDS011;53049;43.446;3.698;2023-08-12T02:45:52;11.60;;;6.68;;
66256;SDS011;53049;43.446;3.698;2023-08-12T02:48:18;9.10;;;5.35;;
66256;SDS011;53049;43.446;3.698;2023-08-12T02:50:44;8.32;;;5.05;;
66256;SDS011;53049;43.446;3.698;2023-08-12T02:53:09;7.20;;;4.43;;
66256;SDS011;53049;43.446;3.698;2023-08-12T02:55:35;9.30;;;4.60;;
66256;SDS011;53049;43.446;3.698;2023-08-12T02:58:02;9.88;;;4.55;;
66256;SDS011;53049;43.446;3.698;2023-08-12T03:00:28;11.75;;;4.53;;
66256;SDS011;53049;43.446;3.698;2023-08-12T03:02:54;10.25;;;4.47;;
66256;SDS011;53049;43.446;3.698;2023-08-12T03:05:20;10.48;;;4.63;;
66256;SDS011;53049;43.446;3.698;2023-08-12T03:07:46;9.98;;;5.05;;
66256;SDS011;53049;43.446;3.698;2023-08-12T03:10:11;10.23;;;5.22;;
66256;SDS011;53049;43.446;3.698;2023-08-12T03:12:37;7.88;;;4.95;;
66256;SDS011;53049;43.446;3.698;2023-08-12T03:15:03;8.43;;;4.15;;
66256;SDS011;53049;43.446;3.698;2023-08-12T03:17:31;9.85;;;4.55;;
66256;SDS011;53049;43.446;3.698;2023-08-12T03:19:57;7.82;;;4.55;;
66256;SDS011;53049;43.446;3.698;2023-08-12T03:22:24;8.85;;;4.20;;
66256;SDS011;53049;43.446;3.698;2023-08-12T03:24:50;11.25;;;4.93;;
66256;SDS011;53049;43.446;3.698;2023-08-12T03:27:16;6.90;;;4.38;;
66256;SDS011;53049;43.446;3.698;2023-08-12T03:29:41;9.88;;;4.32;;
66256;SDS011;53049;43.446;3.698;2023-08-12T03:32:07;7.38;;;4.45;;
66256;SDS011;53049;43.446;3.698;2023-08-12T03:34:33;8.38;;;4.20;;
66256;SDS011;53049;43.446;3.698;2023-08-12T03:36:58;10.32;;;4.30;;
66256;SDS011;53049;43.446;3.698;2023-08-12T03:39:24;8.70;;;4.18;;
66256;SDS011;53049;43.446;3.698;2023-08-12T03:41:49;9.75;;;4.50;;
66256;SDS011;53049;43.446;3.698;2023-08-12T03:44:15;6.50;;;4.05;;
66256;SDS011;53049;43.446;3.698;2023-08-12T03:46:41;8.95;;;4.78;;
66256;SDS011;53049;43.446;3.698;2023-08-12T03:49:07;7.88;;;4.10;;
66256;SDS011;53049;43.446;3.698;2023-08-12T03:51:33;6.60;;;4.47;;
66256;SDS011;53049;43.446;3.698;2023-08-12T03:53:59;9.80;;;4.47;;
66256;SDS011;53049;43.446;3.698;2023-08-12T03:56:24;12.32;;;4.60;;
66256;SDS011;53049;43.446;3.698;2023-08-12T03:58:51;9.75;;;5.03;;
66256;SDS011;53049;43.446;3.698;2023-08-12T04:01:16;8.65;;;5.35;;
66256;SDS011;53049;43.446;3.698;2023-08-12T04:03:42;8.65;;;5.50;;
66256;SDS011;53049;43.446;3.698;2023-08-12T04:06:08;9.43;;;5.80;;
66256;SDS011;53049;43.446;3.698;2023-08-12T04:08:33;10.30;;;5.43;;
66256;SDS011;53049;43.446;3.698;2023-08-12T04:10:59;10.57;;;6.45;;
66256;SDS011;53049;43.446;3.698;2023-08-12T04:13:25;9.75;;;5.80;;
66256;SDS011;53049;43.446;3.698;2023-08-12T04:15:51;11.48;;;6.13;;
66256;SDS011;53049;43.446;3.698;2023-08-12T04:18:18;9.57;;;6.00;;
66256;SDS011;53049;43.446;3.698;2023-08-12T04:20:48;9.88;;;5.47;;
66256;SDS011;53049;43.446;3.698;2023-08-12T04:23:14;9.25;;;5.72;;
66256;SDS011;53049;43.446;3.698;2023-08-12T04:25:42;14.20;;;5.95;;
66256;SDS011;53049;43.446;3.698;2023-08-12T04:28:10;10.65;;;6.28;;
66256;SDS011;53049;43.446;3.698;2023-08-12T04:30:39;9.00;;;5.80;;
66256;SDS011;53049;43.446;3.698;2023-08-12T04:33:08;12.32;;;6.82;;
66256;SDS011;53049;43.446;3.698;2023-08-12T04:35:34;11.10;;;6.63;;
66256;SDS011;53049;43.446;3.698;2023-08-12T04:38:00;9.93;;;6.35;;
66256;SDS011;53049;43.446;3.698;2023-08-12T04:40:25;9.55;;;5.40;;
66256;SDS011;53049;43.446;3.698;2023-08-12T04:42:51;10.15;;;6.95;;
66256;SDS011;53049;43.446;3.698;2023-08-12T04:45:17;10.60;;;6.85;;
66256;SDS011;53049;43.446;3.698;2023-08-12T04:47:42;13.00;;;8.18;;
66256;SDS011;53049;43.446;3.698;2023-08-12T04:50:08;10.80;;;6.95;;
66256;SDS011;53049;43.446;3.698;2023-08-12T04:52:34;14.13;;;8.23;;
66256;SDS011;53049;43.446;3.698;2023-08-12T04:54:59;12.13;;;7.95;;
66256;SDS011;53049;43.446;3.698;2023-08-12T04:57:25;14.30;;;8.23;;
66256;SDS011;53049;43.446;3.698;2023-08-12T04:59:51;18.00;;;10.05;;
66256;SDS011;53049;43.446;3.698;2023-08-12T05:02:16;18.80;;;11.57;;
66256;SDS011;53049;43.446;3.698;2023-08-12T05:04:47;17.85;;;10.40;;
66256;SDS011;53049;43.446;3.698;2023-08-12T05:07:16;16.42;;;9.98;;
66256;SDS011;53049;43.446;3.698;2023-08-12T05:09:42;16.63;;;10.23;;
66256;SDS011;53049;43.446;3.698;2023-08-12T05:12:11;18.42;;;10.48;;
66256;SDS011;53049;43.446;3.698;2023-08-12T05:14:37;15.02;;;10.38;;
66256;SDS011;53049;43.446;3.698;2023-08-12T05:17:03;14.48;;;9.57;;
66256;SDS011;53049;43.446;3.698;2023-08-12T05:19:29;12.43;;;8.48;;
66256;SDS011;53049;43.446;3.698;2023-08-12T05:21:55;13.52;;;9.00;;
66256;SDS011;53049;43.446;3.698;2023-08-12T05:24:20;13.70;;;8.75;;
66256;SDS011;53049;43.446;3.698;2023-08-12T05:26:46;15.05;;;10.10;;
66256;SDS011;53049;43.446;3.698;2023-08-12T05:29:12;13.57;;;9.00;;
66256;SDS011;53049;43.446;3.698;2023-08-12T05:31:37;15.63;;;10.43;;
66256;SDS011;53049;43.446;3.698;2023-08-12T05:34:03;13.73;;;10.07;;
66256;SDS011;53049;43.446;3.698;2023-08-12T05:36:29;15.25;;;10.52;;
66256;SDS011;53049;43.446;3.698;2023-08-12T05:38:55;14.52;;;9.75;;
66256;SDS011;53049;43.446;3.698;2023-08-12T05:41:20;15.05;;;9.45;;
66256;SDS011;53049;43.446;3.698;2023-08-12T05:43:47;15.98;;;8.70;;
66256;SDS011;53049;43.446;3.698;2023-08-12T05:46:13;15.30;;;9.38;;
66256;SDS011;53049;43.446;3.698;2023-08-12T05:48:38;14.60;;;9.30;;
66256;SDS011;53049;43.446;3.698;2023-08-12T05:51:04;14.00;;;8.95;;
66256;SDS011;53049;43.446;3.698;2023-08-12T05:53:30;13.13;;;8.38;;
66256;SDS011;53049;43.446;3.698;2023-08-12T05:55:56;15.50;;;9.25;;
66256;SDS011;53049;43.446;3.698;2023-08-12T05:58:21;15.15;;;9.45;;
66256;SDS011;53049;43.446;3.698;2023-08-12T06:00:47;18.75;;;9.70;;
66256;SDS011;53049;43.446;3.698;2023-08-12T06:03:12;20.33;;;10.75;;
66256;SDS011;53049;43.446;3.698;2023-08-12T06:05:39;17.88;;;10.73;;
66256;SDS011;53049;43.446;3.698;2023-08-12T06:08:10;16.65;;;10.30;;
66256;SDS011;53049;43.446;3.698;2023-08-12T06:10:36;19.27;;;11.15;;
66256;SDS011;53049;43.446;3.698;2023-08-12T06:13:01;20.05;;;11.38;;
66256;SDS011;53049;43.446;3.698;2023-08-12T06:15:27;18.30;;;11.18;;
66256;SDS011;53049;43.446;3.698;2023-08-12T06:17:53;17.88;;;11.55;;
66256;SDS011;53049;43.446;3.698;2023-08-12T06:20:19;20.08;;;12.27;;
66256;SDS011;53049;43.446;3.698;2023-08-12T06:22:44;25.02;;;12.98;;
66256;SDS011;53049;43.446;3.698;2023-08-12T06:25:10;21.13;;;12.63;;
66256;SDS011;53049;43.446;3.698;2023-08-12T06:27:36;16.50;;;11.48;;
66256;SDS011;53049;43.446;3.698;2023-08-12T06:30:01;30.13;;;12.85;;
66256;SDS011;53049;43.446;3.698;2023-08-12T06:32:27;22.75;;;11.55;;
66256;SDS011;53049;43.446;3.698;2023-08-12T06:34:53;16.50;;;10.85;;
66256;SDS011;53049;43.446;3.698;2023-08-12T06:37:18;14.80;;;10.05;;
66256;SDS011;53049;43.446;3.698;2023-08-12T06:39:44;16.90;;;10.88;;
66256;SDS011;53049;43.446;3.698;2023-08-12T06:42:09;14.82;;;10.00;;
66256;SDS011;53049;43.446;3.698;2023-08-12T06:44:35;13.90;;;10.00;;
66256;SDS011;53049;43.446;3.698;2023-08-12T06:47:01;15.38;;;10.02;;
66256;SDS011;53049;43.446;3.698;2023-08-12T06:49:26;13.25;;;10.07;;
66256;SDS011;53049;43.446;3.698;2023-08-12T06:51:52;13.90;;;10.18;;
66256;SDS011;53049;43.446;3.698;2023-08-12T06:54:17;12.65;;;8.70;;
66256;SDS011;53049;43.446;3.698;2023-08-12T06:56:43;15.98;;;10.57;;
66256;SDS011;53049;43.446;3.698;2023-08-12T06:59:09;15.65;;;9.82;;
66256;SDS011;53049;43.446;3.698;2023-08-12T07:01:34;14.70;;;10.20;;
66256;SDS011;53049;43.446;3.698;2023-08-12T07:04:00;15.00;;;10.23;;
66256;SDS011;53049;43.446;3.698;2023-08-12T07:06:26;12.82;;;9.10;;
66256;SDS011;53049;43.446;3.698;2023-08-12T07:08:51;14.15;;;10.13;;
66256;SDS011;53049;43.446;3.698;2023-08-12T07:11:17;14.32;;;9.35;;
66256;SDS011;53049;43.446;3.698;2023-08-12T07:13:42;11.90;;;8.32;;
66256;SDS011;53049;43.446;3.698;2023-08-12T07:16:11;11.27;;;8.13;;
66256;SDS011;53049;43.446;3.698;2023-08-12T07:18:36;10.20;;;7.57;;
66256;SDS011;53049;43.446;3.698;2023-08-12T07:21:02;11.02;;;7.30;;
66256;SDS011;53049;43.446;3.698;2023-08-12T07:23:28;11.35;;;7.53;;
66256;SDS011;53049;43.446;3.698;2023-08-12T07:25:54;9.35;;;7.38;;
66256;SDS011;53049;43.446;3.698;2023-08-12T07:28:20;9.30;;;6.95;;
66256;SDS011;53049;43.446;3.698;2023-08-12T07:30:47;7.70;;;5.90;;
66256;SDS011;53049;43.446;3.698;2023-08-12T07:33:14;9.30;;;6.88;;
66256;SDS011;53049;43.446;3.698;2023-08-12T07:35:39;10.05;;;6.63;;
66256;SDS011;53049;43.446;3.698;2023-08-12T07:38:06;11.02;;;7.53;;
66256;SDS011;53049;43.446;3.698;2023-08-12T07:40:31;9.60;;;7.50;;
66256;SDS011;53049;43.446;3.698;2023-08-12T07:42:57;8.57;;;6.88;;
66256;SDS011;53049;43.446;3.698;2023-08-12T07:45:23;9.02;;;6.38;;
66256;SDS011;53049;43.446;3.698;2023-08-12T07:47:49;8.77;;;5.82;;
66256;SDS011;53049;43.446;3.698;2023-08-12T07:50:14;9.68;;;7.05;;
66256;SDS011;53049;43.446;3.698;2023-08-12T07:52:40;11.05;;;6.60;;
66256;SDS011;53049;43.446;3.698;2023-08-12T07:55:06;9.50;;;5.55;;
66256;SDS011;53049;43.446;3.698;2023-08-12T07:57:32;10.40;;;6.85;;
66256;SDS011;53049;43.446;3.698;2023-08-12T07:59:58;10.90;;;5.95;;
66256;SDS011;53049;43.446;3.698;2023-08-12T08:02:23;7.45;;;4.72;;
66256;SDS011;53049;43.446;3.698;2023-08-12T08:04:49;7.95;;;5.40;;
66256;SDS011;53049;43.446;3.698;2023-08-12T08:07:15;7.05;;;4.68;;
66256;SDS011;53049;43.446;3.698;2023-08-12T08:09:41;9.27;;;5.25;;
66256;SDS011;53049;43.446;3.698;2023-08-12T08:12:08;8.32;;;5.03;;
66256;SDS011;53049;43.446;3.698;2023-08-12T08:14:34;8.65;;;4.90;;
66256;SDS011;53049;43.446;3.698;2023-08-12T08:16:59;7.57;;;4.60;;
66256;SDS011;53049;43.446;3.698;2023-08-12T08:19:25;6.25;;;4.25;;
66256;SDS011;53049;43.446;3.698;2023-08-12T08:21:51;7.05;;;4.22;;
66256;SDS011;53049;43.446;3.698;2023-08-12T08:24:16;6.63;;;4.10;;
66256;SDS011;53049;43.446;3.698;2023-08-12T08:26:42;6.53;;;4.03;;
66256;SDS011;53049;43.446;3.698;2023-08-12T08:29:08;6.22;;;3.97;;
66256;SDS011;53049;43.446;3.698;2023-08-12T08:31:34;6.80;;;4.10;;
66256;SDS011;53049;43.446;3.698;2023-08-12T08:33:59;6.60;;;3.92;;
66256;SDS011;53049;43.446;3.698;2023-08-12T08:36:25;5.68;;;4.07;;
66256;SDS011;53049;43.446;3.698;2023-08-12T08:38:50;12.02;;;4.53;;
66256;SDS011;53049;43.446;3.698;2023-08-12T08:41:16;6.72;;;4.18;;
66256;SDS011;53049;43.446;3.698;2023-08-12T08:43:42;6.32;;;3.88;;
66256;SDS011;53049;43.446;3.698;2023-08-12T08:46:13;4.07;;;2.83;;
66256;SDS011;53049;43.446;3.698;2023-08-12T08:48:43;5.85;;;2.83;;
66256;SDS011;53049;43.446;3.698;2023-08-12T08:51:09;4.43;;;2.75;;
66256;SDS011;53049;43.446;3.698;2023-08-12T08:53:37;5.57;;;2.60;;
66256;SDS011;53049;43.446;3.698;2023-08-12T08:56:07;6.30;;;2.75;;
66256;SDS011;53049;43.446;3.698;2023-08-12T08:58:36;4.53;;;2.60;;
66256;SDS011;53049;43.446;3.698;2023-08-12T09:01:03;6.00;;;2.88;;
66256;SDS011;53049;43.446;3.698;2023-08-12T09:03:31;5.00;;;3.40;;
66256;SDS011;53049;43.446;3.698;2023-08-12T09:05:58;5.60;;;3.08;;
66256;SDS011;53049;43.446;3.698;2023-08-12T09:08:24;6.10;;;3.85;;
66256;SDS011;53049;43.446;3.698;2023-08-12T09:10:51;7.70;;;4.38;;
66256;SDS011;53049;43.446;3.698;2023-08-12T09:13:17;7.97;;;4.32;;
66256;SDS011;53049;43.446;3.698;2023-08-12T09:15:44;7.63;;;4.28;;
66256;SDS011;53049;43.446;3.698;2023-08-12T09:18:09;5.45;;;3.70;;
66256;SDS011;53049;43.446;3.698;2023-08-12T09:20:35;7.00;;;3.95;;
66256;SDS011;53049;43.446;3.698;2023-08-12T09:23:01;6.45;;;3.20;;
66256;SDS011;53049;43.446;3.698;2023-08-12T09:25:28;5.38;;;3.25;;
66256;SDS011;53049;43.446;3.698;2023-08-12T09:28:03;5.07;;;2.97;;
66256;SDS011;53049;43.446;3.698;2023-08-12T09:30:29;7.25;;;3.45;;
66256;SDS011;53049;43.446;3.698;2023-08-12T09:33:02;7.43;;;3.50;;
66256;SDS011;53049;43.446;3.698;2023-08-12T09:35:36;5.20;;;2.80;;
66256;SDS011;53049;43.446;3.698;2023-08-12T09:38:12;5.97;;;3.20;;
66256;SDS011;53049;43.446;3.698;2023-08-12T09:40:38;5.15;;;2.95;;
66256;SDS011;53049;43.446;3.698;2023-08-12T09:43:04;6.35;;;3.00;;
66256;SDS011;53049;43.446;3.698;2023-08-12T09:45:30;5.35;;;3.20;;
66256;SDS011;53049;43.446;3.698;2023-08-12T09:47:57;5.93;;;3.20;;
66256;SDS011;53049;43.446;3.698;2023-08-12T09:50:24;5.25;;;2.92;;
66256;SDS011;53049;43.446;3.698;2023-08-12T09:52:51;5.40;;;2.95;;
66256;SDS011;53049;43.446;3.698;2023-08-12T09:55:19;5.05;;;2.95;;
66256;SDS011;53049;43.446;3.698;2023-08-12T09:57:54;5.00;;;3.42;;
66256;SDS011;53049;43.446;3.698;2023-08-12T10:00:20;6.15;;;2.90;;
66256;SDS011;53049;43.446;3.698;2023-08-12T10:02:48;9.80;;;3.20;;
66256;SDS011;53049;43.446;3.698;2023-08-12T10:05:18;3.88;;;2.60;;
66256;SDS011;53049;43.446;3.698;2023-08-12T10:07:47;5.95;;;2.88;;
66256;SDS011;53049;43.446;3.698;2023-08-12T10:10:13;5.72;;;2.92;;
66256;SDS011;53049;43.446;3.698;2023-08-12T10:12:40;4.30;;;2.83;;
66256;SDS011;53049;43.446;3.698;2023-08-12T10:15:06;5.85;;;2.83;;
66256;SDS011;53049;43.446;3.698;2023-08-12T10:17:34;5.97;;;2.85;;
66256;SDS011;53049;43.446;3.698;2023-08-12T10:20:00;3.55;;;2.50;;
66256;SDS011;53049;43.446;3.698;2023-08-12T10:22:29;4.28;;;2.80;;
66256;SDS011;53049;43.446;3.698;2023-08-12T10:24:59;5.15;;;2.58;;
66256;SDS011;53049;43.446;3.698;2023-08-12T10:27:27;5.18;;;2.80;;
66256;SDS011;53049;43.446;3.698;2023-08-12T10:29:55;5.05;;;2.80;;
66256;SDS011;53049;43.446;3.698;2023-08-12T10:32:22;5.75;;;2.70;;
66256;SDS011;53049;43.446;3.698;2023-08-12T10:34:55;4.38;;;2.65;;
66256;SDS011;53049;43.446;3.698;2023-08-12T10:37:23;5.90;;;3.03;;
66256;SDS011;53049;43.446;3.698;2023-08-12T10:39:49;6.25;;;2.97;;
66256;SDS011;53049;43.446;3.698;2023-08-12T10:45:14;6.97;;;2.60;;
66256;SDS011;53049;43.446;3.698;2023-08-12T10:47:42;4.85;;;2.70;;
66256;SDS011;53049;43.446;3.698;2023-08-12T10:50:16;5.28;;;2.58;;
66256;SDS011;53049;43.446;3.698;2023-08-12T10:52:46;5.32;;;2.45;;
66256;SDS011;53049;43.446;3.698;2023-08-12T10:55:22;4.60;;;2.72;;
66256;SDS011;53049;43.446;3.698;2023-08-12T10:57:53;4.35;;;2.60;;
66256;SDS011;53049;43.446;3.698;2023-08-12T11:00:20;4.30;;;2.65;;
66256;SDS011;53049;43.446;3.698;2023-08-12T11:02:53;4.95;;;2.85;;
66256;SDS011;53049;43.446;3.698;2023-08-12T11:05:21;6.70;;;2.80;;
66256;SDS011;53049;43.446;3.698;2023-08-12T11:07:57;5.60;;;2.60;;
66256;SDS011;53049;43.446;3.698;2023-08-12T11:10:26;4.53;;;2.72;;
66256;SDS011;53049;43.446;3.698;2023-08-12T11:12:55;3.55;;;2.45;;
66256;SDS011;53049;43.446;3.698;2023-08-12T11:15:29;5.60;;;2.72;;
66256;SDS011;53049;43.446;3.698;2023-08-12T11:18:03;5.20;;;2.80;;
66256;SDS011;53049;43.446;3.698;2023-08-12T11:20:34;5.00;;;2.92;;
66256;SDS011;53049;43.446;3.698;2023-08-12T11:23:00;4.68;;;2.90;;
66256;SDS011;53049;43.446;3.698;2023-08-12T11:25:30;5.90;;;3.13;;
66256;SDS011;53049;43.446;3.698;2023-08-12T11:27:57;6.60;;;3.17;;
66256;SDS011;53049;43.446;3.698;2023-08-12T11:30:23;3.85;;;2.80;;
66256;SDS011;53049;43.446;3.698;2023-08-12T11:32:50;6.80;;;2.70;;
66256;SDS011;53049;43.446;3.698;2023-08-12T11:35:20;4.97;;;2.67;;
66256;SDS011;53049;43.446;3.698;2023-08-12T11:37:47;6.25;;;3.00;;
66256;SDS011;53049;43.446;3.698;2023-08-12T11:40:15;5.35;;;2.60;;
66256;SDS011;53049;43.446;3.698;2023-08-12T11:42:42;4.65;;;2.88;;
66256;SDS011;53049;43.446;3.698;2023-08-12T11:45:09;5.85;;;2.92;;
66256;SDS011;53049;43.446;3.698;2023-08-12T11:47:36;4.22;;;2.50;;
66256;SDS011;53049;43.446;3.698;2023-08-12T11:50:07;5.10;;;2.80;;
66256;SDS011;53049;43.446;3.698;2023-08-12T11:52:38;4.90;;;2.70;;
66256;SDS011;53049;43.446;3.698;2023-08-12T11:55:05;4.90;;;2.63;;
66256;SDS011;53049;43.446;3.698;2023-08-12T11:57:32;3.22;;;2.22;;
66256;SDS011;53049;43.446;3.698;2023-08-12T11:59:59;4.68;;;2.75;;
66256;SDS011;53049;43.446;3.698;2023-08-12T12:02:26;4.38;;;2.92;;
66256;SDS011;53049;43.446;3.698;2023-08-12T12:04:52;4.35;;;2.88;;
66256;SDS011;53049;43.446;3.698;2023-08-12T12:07:18;5.97;;;2.92;;
66256;SDS011;53049;43.446;3.698;2023-08-12T12:09:53;6.28;;;2.90;;
66256;SDS011;53049;43.446;3.698;2023-08-12T12:12:25;5.53;;;2.53;;
66256;SDS011;53049;43.446;3.698;2023-08-12T12:14:55;5.03;;;2.90;;
66256;SDS011;53049;43.446;3.698;2023-08-12T12:17:24;5.60;;;2.83;;
66256;SDS011;53049;43.446;3.698;2023-08-12T12:19:55;5.85;;;3.08;;
66256;SDS011;53049;43.446;3.698;2023-08-12T12:22:31;6.28;;;2.70;;
66256;SDS011;53049;43.446;3.698;2023-08-12T12:25:05;4.68;;;2.78;;
66256;SDS011;53049;43.446;3.698;2023-08-12T12:27:36;4.72;;;2.50;;
66256;SDS011;53049;43.446;3.698;2023-08-12T12:30:03;4.93;;;2.60;;
66256;SDS011;53049;43.446;3.698;2023-08-12T12:32:29;3.58;;;2.15;;
66256;SDS011;53049;43.446;3.698;2023-08-12T12:34:54;5.72;;;2.72;;
66256;SDS011;53049;43.446;3.698;2023-08-12T12:37:20;5.15;;;2.60;;
66256;SDS011;53049;43.446;3.698;2023-08-12T12:39:46;4.65;;;2.33;;
66256;SDS011;53049;43.446;3.698;2023-08-12T12:42:12;6.47;;;2.85;;
66256;SDS011;53049;43.446;3.698;2023-08-12T12:44:38;6.07;;;2.55;;
66256;SDS011;53049;43.446;3.698;2023-08-12T12:47:04;4.25;;;2.25;;
66256;SDS011;53049;43.446;3.698;2023-08-12T12:49:30;3.80;;;2.50;;
66256;SDS011;53049;43.446;3.698;2023-08-12T12:51:55;4.35;;;2.63;;
66256;SDS011;53049;43.446;3.698;2023-08-12T12:54:21;6.30;;;2.80;;
66256;SDS011;53049;43.446;3.698;2023-08-12T12:56:47;6.97;;;3.80;;
66256;SDS011;53049;43.446;3.698;2023-08-12T12:59:13;6.93;;;3.10;;
66256;SDS011;53049;43.446;3.698;2023-08-12T13:01:39;4.28;;;2.67;;
66256;SDS011;53049;43.446;3.698;2023-08-12T13:04:05;4.10;;;2.78;;
66256;SDS011;53049;43.446;3.698;2023-08-12T13:06:33;6.10;;;2.60;;
66256;SDS011;53049;43.446;3.698;2023-08-12T13:08:59;5.47;;;3.00;;
66256;SDS011;53049;43.446;3.698;2023-08-12T13:11:25;4.95;;;3.05;;
66256;SDS011;53049;43.446;3.698;2023-08-12T13:13:50;5.30;;;2.72;;
66256;SDS011;53049;43.446;3.698;2023-08-12T13:16:16;6.78;;;2.75;;
66256;SDS011;53049;43.446;3.698;2023-08-12T13:18:42;7.88;;;2.63;;
66256;SDS011;53049;43.446;3.698;2023-08-12T13:21:08;4.00;;;2.60;;
66256;SDS011;53049;43.446;3.698;2023-08-12T13:23:34;5.88;;;2.85;;
66256;SDS011;53049;43.446;3.698;2023-08-12T13:25:59;7.57;;;2.85;;
66256;SDS011;53049;43.446;3.698;2023-08-12T13:28:25;3.85;;;2.55;;
66256;SDS011;53049;43.446;3.698;2023-08-12T13:30:50;5.22;;;2.70;;
66256;SDS011;53049;43.446;3.698;2023-08-12T13:33:16;6.45;;;2.55;;
66256;SDS011;53049;43.446;3.698;2023-08-12T13:35:42;3.70;;;2.60;;
66256;SDS011;53049;43.446;3.698;2023-08-12T13:38:07;6.75;;;2.97;;
66256;SDS011;53049;43.446;3.698;2023-08-12T13:40:33;5.72;;;2.72;;
66256;SDS011;53049;43.446;3.698;2023-08-12T13:42:58;4.00;;;2.78;;
66256;SDS011;53049;43.446;3.698;2023-08-12T13:45:24;4.40;;;2.75;;
66256;SDS011;53049;43.446;3.698;2023-08-12T13:47:51;5.38;;;2.60;;
66256;SDS011;53049;43.446;3.698;2023-08-12T13:50:17;4.28;;;2.40;;
66256;SDS011;53049;43.446;3.698;2023-08-12T13:52:43;5.65;;;3.20;;
66256;SDS011;53049;43.446;3.698;2023-08-12T13:55:11;6.18;;;3.30;;
66256;SDS011;53049;43.446;3.698;2023-08-12T13:57:37;7.13;;;2.90;;
66256;SDS011;53049;43.446;3.698;2023-08-12T14:00:02;4.10;;;2.55;;
66256;SDS011;53049;43.446;3.698;2023-08-12T14:02:34;5.68;;;2.97;;
66256;SDS011;53049;43.446;3.698;2023-08-12T14:05:00;4.47;;;2.70;;
66256;SDS011;53049;43.446;3.698;2023-08-12T14:07:25;7.25;;;2.97;;
66256;SDS011;53049;43.446;3.698;2023-08-12T14:09:51;6.07;;;2.60;;
66256;SDS011;53049;43.446;3.698;2023-08-12T14:12:17;5.53;;;2.97;;
66256;SDS011;53049;43.446;3.698;2023-08-12T14:14:43;5.40;;;2.90;;
66256;SDS011;53049;43.446;3.698;2023-08-12T14:17:09;4.22;;;2.55;;
66256;SDS011;53049;43.446;3.698;2023-08-12T14:19:38;4.10;;;3.05;;
66256;SDS011;53049;43.446;3.698;2023-08-12T14:22:04;5.00;;;2.80;;
66256;SDS011;53049;43.446;3.698;2023-08-12T14:24:30;5.30;;;3.08;;
66256;SDS011;53049;43.446;3.698;2023-08-12T14:26:55;4.30;;;3.13;;
66256;SDS011;53049;43.446;3.698;2023-08-12T14:29:21;5.13;;;2.85;;
66256;SDS011;53049;43.446;3.698;2023-08-12T14:31:47;6.97;;;2.72;;
66256;SDS011;53049;43.446;3.698;2023-08-12T14:34:12;5.10;;;2.95;;
66256;SDS011;53049;43.446;3.698;2023-08-12T14:36:38;5.75;;;2.67;;
66256;SDS011;53049;43.446;3.698;2023-08-12T14:39:04;4.97;;;3.05;;
66256;SDS011;53049;43.446;3.698;2023-08-12T14:41:29;4.82;;;2.85;;
66256;SDS011;53049;43.446;3.698;2023-08-12T14:43:55;6.00;;;3.10;;
66256;SDS011;53049;43.446;3.698;2023-08-12T14:46:21;5.93;;;2.58;;